Time;durP1;ratioP1;P1;durP2;ratioP2;P2;SDS_P1;SDS_P2;PMS_P1;PMS_P2;Temp;Humidity;BMP_temperature;BMP_pressure;BME280_temperature;BME280_humidity;BME280_pressure;Samples;Min_cycle;Max_cycle;Signal;HPM_P1;HPM_P2
2022/03/16 00:01:44;;;;;;;33.50;19.38;;;;;;;;;;4964260;28;20030;-86
2022/03/16 00:04:09;;;;;;;34.13;20.05;;;;;;;;;;4996850;28;20034;-86
2022/03/16 00:06:35;;;;;;;32.05;18.92;;;;;;;;;;4997160;28;20083;-86
2022/03/16 00:09:00;;;;;;;31.05;19.90;;;;;;;;;;4997132;28;20041;-87
2022/03/16 00:11:26;;;;;;;32.85;19.13;;;;;;;;;;4979827;28;20472;-87
2022/03/16 00:13:51;;;;;;;31.67;18.48;;;;;;;;;;4979424;28;20041;-88
2022/03/16 00:16:16;;;;;;;30.75;18.60;;;;;;;;;;4979421;28;20026;-87
2022/03/16 00:18:42;;;;;;;31.17;19.00;;;;;;;;;;4983144;28;20118;-85
2022/03/16 00:21:28;;;;;;;29.02;17.95;;;;;;;;;;4960146;28;20055;-86
2022/03/16 00:23:53;;;;;;;30.38;18.25;;;;;;;;;;4960515;28;20035;-86
2022/03/16 00:26:19;;;;;;;31.35;18.25;;;;;;;;;;4984579;28;20082;-84
2022/03/16 00:28:44;;;;;;;30.17;18.65;;;;;;;;;;4968523;28;20400;-86
2022/03/16 00:31:10;;;;;;;29.15;18.10;;;;;;;;;;4977959;28;20090;-86
2022/03/16 00:33:35;;;;;;;31.02;19.08;;;;;;;;;;4969640;28;20095;-86
2022/03/16 00:36:00;;;;;;;35.80;20.40;;;;;;;;;;4951030;28;20027;-86
2022/03/16 00:38:26;;;;;;;30.10;18.60;;;;;;;;;;4958393;28;20030;-84
2022/03/16 00:40:52;;;;;;;28.90;17.52;;;;;;;;;;4948170;28;20052;-86
2022/03/16 00:43:17;;;;;;;33.40;19.45;;;;;;;;;;4966888;28;20788;-85
2022/03/16 00:45:42;;;;;;;36.10;20.33;;;;;;;;;;4965672;28;20069;-87
2022/03/16 00:48:08;;;;;;;32.33;19.55;;;;;;;;;;4967160;28;20031;-86
2022/03/16 00:50:34;;;;;;;33.97;20.00;;;;;;;;;;4950332;28;20390;-88
2022/03/16 00:53:00;;;;;;;34.40;19.73;;;;;;;;;;4973676;28;20038;-87
2022/03/16 00:55:26;;;;;;;40.45;21.63;;;;;;;;;;4971459;28;20139;-86
2022/03/16 00:57:51;;;;;;;42.45;21.77;;;;;;;;;;4970608;28;20647;-86
2022/03/16 01:00:17;;;;;;;40.65;20.92;;;;;;;;;;4971924;28;20019;-85
2022/03/16 01:02:42;;;;;;;40.47;21.67;;;;;;;;;;4967489;28;20367;-84
2022/03/16 01:05:08;;;;;;;40.63;21.15;;;;;;;;;;4965957;28;20034;-85
2022/03/16 01:07:33;;;;;;;39.78;21.52;;;;;;;;;;4969481;28;20405;-87
2022/03/16 01:09:58;;;;;;;37.70;21.55;;;;;;;;;;4951028;28;20067;-88
2022/03/16 01:12:24;;;;;;;35.60;20.55;;;;;;;;;;4971190;28;20082;-87
2022/03/16 01:14:49;;;;;;;35.88;20.48;;;;;;;;;;4969187;28;20046;-87
2022/03/16 01:17:15;;;;;;;41.75;23.30;;;;;;;;;;4954455;28;20015;-85
2022/03/16 01:19:40;;;;;;;43.00;23.83;;;;;;;;;;4970193;28;20184;-87
2022/03/16 01:22:06;;;;;;;47.55;24.83;;;;;;;;;;4949764;28;20034;-87
2022/03/16 01:24:32;;;;;;;41.45;22.73;;;;;;;;;;4964828;28;20073;-88
2022/03/16 01:26:58;;;;;;;43.55;23.75;;;;;;;;;;4950593;28;20029;-88
2022/03/16 01:29:26;;;;;;;41.55;23.00;;;;;;;;;;4953217;28;20424;-87
2022/03/16 01:31:55;;;;;;;41.95;22.75;;;;;;;;;;4951905;28;20083;-87
2022/03/16 01:34:21;;;;;;;50.15;23.25;;;;;;;;;;4949911;28;20027;-90
2022/03/16 01:36:47;;;;;;;46.25;23.73;;;;;;;;;;4947826;28;20026;-90
2022/03/16 01:39:13;;;;;;;45.13;24.40;;;;;;;;;;4961652;28;20027;-87
2022/03/16 01:41:39;;;;;;;45.72;23.63;;;;;;;;;;4943317;28;20519;-86
2022/03/16 01:44:04;;;;;;;47.95;23.92;;;;;;;;;;4944716;28;20029;-87
2022/03/16 01:46:30;;;;;;;49.05;23.60;;;;;;;;;;4964078;28;20027;-88
2022/03/16 01:48:55;;;;;;;52.38;24.48;;;;;;;;;;4957333;28;20030;-87
2022/03/16 01:51:21;;;;;;;48.85;23.85;;;;;;;;;;4964738;28;20031;-88
2022/03/16 01:53:48;;;;;;;45.40;23.85;;;;;;;;;;4953299;28;20030;-88
2022/03/16 01:56:15;;;;;;;52.10;26.02;;;;;;;;;;4973961;28;20102;-88
2022/03/16 01:58:41;;;;;;;45.90;24.65;;;;;;;;;;4982366;28;20026;-88
2022/03/16 02:01:06;;;;;;;46.30;23.95;;;;;;;;;;4957052;28;20078;-87
2022/03/16 02:03:31;;;;;;;46.85;25.13;;;;;;;;;;4956757;28;20031;-87
2022/03/16 02:05:57;;;;;;;44.83;23.65;;;;;;;;;;4972950;28;20665;-87
2022/03/16 02:08:22;;;;;;;49.78;25.25;;;;;;;;;;4956931;28;20030;-88
2022/03/16 02:10:48;;;;;;;47.83;24.38;;;;;;;;;;4974069;28;20480;-88
2022/03/16 02:13:13;;;;;;;47.78;24.98;;;;;;;;;;4976001;28;20023;-88
2022/03/16 02:15:39;;;;;;;49.63;23.92;;;;;;;;;;4974715;28;20062;-86
2022/03/16 02:18:05;;;;;;;48.38;24.75;;;;;;;;;;4957279;28;20023;-87
2022/03/16 02:20:30;;;;;;;50.67;24.73;;;;;;;;;;4980199;28;20033;-87
2022/03/16 02:22:58;;;;;;;49.03;23.90;;;;;;;;;;4992033;28;20022;-86
2022/03/16 02:25:25;;;;;;;48.20;25.13;;;;;;;;;;4994841;28;20026;-85
2022/03/16 02:27:54;;;;;;;55.22;26.25;;;;;;;;;;4987304;28;20007;-86
2022/03/16 02:30:22;;;;;;;44.28;23.50;;;;;;;;;;4998148;28;20030;-86
2022/03/16 02:32:48;;;;;;;50.10;26.17;;;;;;;;;;4977768;28;20050;-86
2022/03/16 02:35:14;;;;;;;46.40;23.17;;;;;;;;;;4978690;28;20070;-88
2022/03/16 02:37:40;;;;;;;46.10;23.85;;;;;;;;;;4996453;28;20031;-88
2022/03/16 02:40:08;;;;;;;48.47;23.50;;;;;;;;;;4995474;23;20409;-81
2022/03/16 02:42:33;;;;;;;52.83;25.92;;;;;;;;;;5008520;28;20022;-80
2022/03/16 02:44:59;;;;;;;54.88;26.85;;;;;;;;;;5013184;28;20045;-80
2022/03/16 02:47:24;;;;;;;57.35;27.42;;;;;;;;;;5010389;28;20033;-80
2022/03/16 02:49:51;;;;;;;61.78;26.65;;;;;;;;;;5012741;28;20041;-82
2022/03/16 02:52:17;;;;;;;58.63;27.85;;;;;;;;;;5024235;28;20029;-81
2022/03/16 02:54:43;;;;;;;61.50;26.55;;;;;;;;;;5028089;28;20034;-81
2022/03/16 02:57:09;;;;;;;66.03;27.67;;;;;;;;;;5025380;28;20038;-80
2022/03/16 02:59:37;;;;;;;67.63;29.25;;;;;;;;;;5010011;28;20082;-81
2022/03/16 03:02:03;;;;;;;57.28;26.38;;;;;;;;;;5024551;28;20045;-80
2022/03/16 03:04:28;;;;;;;58.80;25.73;;;;;;;;;;5028663;28;20034;-80
2022/03/16 03:06:54;;;;;;;58.45;26.85;;;;;;;;;;5026813;28;20014;-81
2022/03/16 03:09:19;;;;;;;59.63;28.23;;;;;;;;;;5025338;28;20032;-80
2022/03/16 03:11:44;;;;;;;54.97;26.20;;;;;;;;;;5025035;28;20072;-81
2022/03/16 03:14:10;;;;;;;58.80;26.02;;;;;;;;;;5024330;28;20026;-80
2022/03/16 03:16:35;;;;;;;54.88;26.05;;;;;;;;;;5027549;28;20062;-81
2022/03/16 03:19:01;;;;;;;54.40;26.60;;;;;;;;;;5021063;28;20045;-81
2022/03/16 03:21:26;;;;;;;55.75;25.60;;;;;;;;;;5027856;28;20022;-81
2022/03/16 03:23:52;;;;;;;59.42;26.42;;;;;;;;;;5012492;28;20023;-81
2022/03/16 03:26:17;;;;;;;59.60;27.08;;;;;;;;;;5025821;28;20026;-81
2022/03/16 03:28:42;;;;;;;54.92;26.70;;;;;;;;;;5022307;28;20022;-80
2022/03/16 03:31:08;;;;;;;63.53;27.38;;;;;;;;;;5028059;28;20018;-81
2022/03/16 03:33:33;;;;;;;57.58;27.30;;;;;;;;;;5028482;28;20506;-81
2022/03/16 03:35:58;;;;;;;54.83;26.25;;;;;;;;;;5026524;28;20042;-81
2022/03/16 03:38:24;;;;;;;52.00;26.45;;;;;;;;;;5028520;28;20022;-81
2022/03/16 03:40:49;;;;;;;57.03;25.77;;;;;;;;;;5025218;28;20033;-81
2022/03/16 03:43:14;;;;;;;54.80;27.10;;;;;;;;;;5027791;28;20018;-80
2022/03/16 03:45:40;;;;;;;54.17;25.45;;;;;;;;;;5027169;28;20045;-80
2022/03/16 03:48:05;;;;;;;53.10;26.88;;;;;;;;;;5019646;28;20029;-81
2022/03/16 03:50:30;;;;;;;55.28;26.77;;;;;;;;;;5027746;28;20022;-80
2022/03/16 03:52:56;;;;;;;55.75;27.67;;;;;;;;;;5026238;28;20097;-81
2022/03/16 03:55:22;;;;;;;60.33;28.65;;;;;;;;;;5026622;28;20578;-81
2022/03/16 03:57:48;;;;;;;57.38;27.45;;;;;;;;;;5023445;28;20045;-81
2022/03/16 04:00:14;;;;;;;60.40;28.23;;;;;;;;;;5027317;28;20040;-81
2022/03/16 04:02:49;;;;;;;57.97;26.23;;;;;;;;;;5023212;28;20014;-81
2022/03/16 04:05:17;;;;;;;57.60;28.90;;;;;;;;;;5031418;28;20065;-81
2022/03/16 04:07:42;;;;;;;55.75;27.40;;;;;;;;;;5030510;28;20029;-81
2022/03/16 04:10:09;;;;;;;55.85;26.67;;;;;;;;;;5029005;28;20086;-81
2022/03/16 04:12:35;;;;;;;60.90;28.10;;;;;;;;;;5030014;28;20125;-81
2022/03/16 04:15:00;;;;;;;61.53;28.15;;;;;;;;;;5030039;28;20077;-82
2022/03/16 04:17:25;;;;;;;61.95;27.42;;;;;;;;;;5031015;28;20022;-81
2022/03/16 04:19:51;;;;;;;57.88;27.10;;;;;;;;;;5024928;28;20097;-81
2022/03/16 04:22:16;;;;;;;62.65;28.52;;;;;;;;;;5010466;28;20172;-82
2022/03/16 04:24:42;;;;;;;61.13;28.77;;;;;;;;;;5016594;28;20030;-81
2022/03/16 04:27:50;;;;;;;62.17;28.55;;;;;;;;;;5023951;28;20023;-82
2022/03/16 04:30:22;;;;;;;61.03;27.20;;;;;;;;;;5024782;28;20034;-81
2022/03/16 04:33:11;;;;;;;63.92;29.75;;;;;;;;;;5011113;28;20522;-81
2022/03/16 04:35:39;;;;;;;66.03;30.65;;;;;;;;;;5028568;28;20479;-81
2022/03/16 04:38:04;;;;;;;64.82;29.80;;;;;;;;;;5023552;28;20064;-81
2022/03/16 04:40:29;;;;;;;58.95;28.73;;;;;;;;;;5013109;28;20255;-81
2022/03/16 04:42:55;;;;;;;69.07;30.65;;;;;;;;;;5027919;28;20026;-82
2022/03/16 04:45:20;;;;;;;67.43;31.45;;;;;;;;;;5022471;28;20029;-82
2022/03/16 04:47:46;;;;;;;66.10;30.33;;;;;;;;;;5012763;28;20026;-81
2022/03/16 04:50:11;;;;;;;70.22;31.10;;;;;;;;;;5025965;28;20033;-80
2022/03/16 04:52:44;;;;;;;73.97;30.25;;;;;;;;;;5027856;28;20022;-80
2022/03/16 04:55:10;;;;;;;70.85;31.23;;;;;;;;;;5027475;28;20021;-81
2022/03/16 04:57:36;;;;;;;73.28;30.58;;;;;;;;;;5023374;28;20025;-81
2022/03/16 05:00:02;;;;;;;76.47;31.08;;;;;;;;;;5023848;28;20030;-81
2022/03/16 05:02:28;;;;;;;67.97;29.48;;;;;;;;;;5012193;28;20037;-81
2022/03/16 05:04:53;;;;;;;87.90;31.52;;;;;;;;;;5024980;28;20018;-81
2022/03/16 05:07:18;;;;;;;75.53;31.98;;;;;;;;;;5027699;28;20026;-81
2022/03/16 05:09:44;;;;;;;72.03;31.65;;;;;;;;;;5025629;28;20053;-81
2022/03/16 05:12:09;;;;;;;78.05;31.58;;;;;;;;;;5027058;28;20030;-81
2022/03/16 05:14:34;;;;;;;86.47;32.78;;;;;;;;;;5025425;28;20026;-80
2022/03/16 05:17:00;;;;;;;83.18;32.75;;;;;;;;;;5024950;28;20021;-82
2022/03/16 05:19:26;;;;;;;92.65;34.33;;;;;;;;;;5021118;28;20081;-81
2022/03/16 05:21:51;;;;;;;79.25;33.90;;;;;;;;;;5025475;28;20034;-81
2022/03/16 05:24:20;;;;;;;75.60;32.15;;;;;;;;;;5012733;28;20022;-82
2022/03/16 05:26:45;;;;;;;83.55;33.20;;;;;;;;;;5015795;28;20029;-81
2022/03/16 05:29:10;;;;;;;85.05;33.75;;;;;;;;;;5012631;28;20052;-81
2022/03/16 05:31:36;;;;;;;80.60;34.35;;;;;;;;;;5026284;28;20053;-81
2022/03/16 05:34:02;;;;;;;78.80;32.60;;;;;;;;;;5027597;28;20022;-81
2022/03/16 05:36:27;;;;;;;79.85;33.10;;;;;;;;;;5027441;28;20036;-82
2022/03/16 05:38:52;;;;;;;77.88;32.58;;;;;;;;;;5025929;28;20037;-81
2022/03/16 05:41:18;;;;;;;75.07;31.52;;;;;;;;;;5027300;28;20109;-82
2022/03/16 05:43:43;;;;;;;68.28;32.10;;;;;;;;;;5014029;28;20065;-82
2022/03/16 05:46:09;;;;;;;65.00;29.48;;;;;;;;;;5026786;28;20086;-82
2022/03/16 05:48:34;;;;;;;58.08;28.20;;;;;;;;;;5026339;28;20037;-81
2022/03/16 05:50:59;;;;;;;61.60;30.70;;;;;;;;;;5035208;28;20022;-82
2022/03/16 05:53:25;;;;;;;50.25;27.95;;;;;;;;;;5032004;28;20025;-81
2022/03/16 05:55:50;;;;;;;53.38;26.80;;;;;;;;;;5034592;28;20077;-81
2022/03/16 05:58:16;;;;;;;52.78;26.60;;;;;;;;;;5027890;28;20072;-81
2022/03/16 06:00:42;;;;;;;46.42;24.20;;;;;;;;;;5002788;28;20022;-81
2022/03/16 06:03:08;;;;;;;44.50;23.15;;;;;;;;;;5011723;28;20036;-82
2022/03/16 06:05:34;;;;;;;47.35;22.25;;;;;;;;;;5010884;28;20387;-82
2022/03/16 06:08:01;;;;;;;43.42;22.60;;;;;;;;;;5011811;28;20532;-81
2022/03/16 06:10:26;;;;;;;50.90;26.45;;;;;;;;;;5018548;28;20026;-81
2022/03/16 06:12:57;;;;;;;40.13;22.23;;;;;;;;;;5024201;28;20030;-82
2022/03/16 06:15:24;;;;;;;43.28;21.13;;;;;;;;;;5009854;28;20038;-82
2022/03/16 06:17:51;;;;;;;41.83;22.85;;;;;;;;;;5010559;28;20049;-83
2022/03/16 06:20:16;;;;;;;42.05;21.48;;;;;;;;;;5017501;28;20022;-83
2022/03/16 06:22:42;;;;;;;41.78;23.05;;;;;;;;;;5027284;28;20052;-86
2022/03/16 06:25:08;;;;;;;41.03;21.77;;;;;;;;;;5023947;28;20030;-81
2022/03/16 06:27:33;;;;;;;41.03;21.88;;;;;;;;;;5024055;28;20022;-83
2022/03/16 06:29:58;;;;;;;43.03;22.15;;;;;;;;;;5026912;28;20022;-84
2022/03/16 06:32:24;;;;;;;41.55;22.13;;;;;;;;;;5013805;28;20033;-82
2022/03/16 06:34:49;;;;;;;43.33;22.40;;;;;;;;;;5000736;28;20026;-83
2022/03/16 06:37:14;;;;;;;41.50;23.02;;;;;;;;;;5007269;28;20018;-83
2022/03/16 06:39:40;;;;;;;44.35;23.65;;;;;;;;;;5013108;28;20033;-83
2022/03/16 06:42:06;;;;;;;42.38;22.13;;;;;;;;;;5028746;28;20052;-84
2022/03/16 06:44:31;;;;;;;45.50;23.17;;;;;;;;;;5027125;28;20045;-83
2022/03/16 06:46:57;;;;;;;41.97;21.50;;;;;;;;;;5028384;22;20129;-83
2022/03/16 06:49:22;;;;;;;42.80;22.60;;;;;;;;;;5001919;28;20037;-82
2022/03/16 06:51:47;;;;;;;46.35;22.08;;;;;;;;;;5003021;28;20030;-83
2022/03/16 06:54:13;;;;;;;43.40;23.85;;;;;;;;;;5004597;28;20026;-80
2022/03/16 06:56:38;;;;;;;44.55;22.42;;;;;;;;;;4987625;28;20117;-82
2022/03/16 06:59:04;;;;;;;42.33;22.52;;;;;;;;;;4989268;28;20030;-83
2022/03/16 07:01:29;;;;;;;42.53;22.42;;;;;;;;;;5006695;28;20459;-84
2022/03/16 07:03:54;;;;;;;46.75;23.88;;;;;;;;;;4991475;28;20018;-82
2022/03/16 07:06:20;;;;;;;41.95;22.75;;;;;;;;;;4985325;28;20093;-82
2022/03/16 07:08:46;;;;;;;43.08;22.02;;;;;;;;;;4986627;28;20138;-81
2022/03/16 07:11:12;;;;;;;41.75;23.10;;;;;;;;;;4989373;28;20041;-81
2022/03/16 07:13:41;;;;;;;43.08;22.05;;;;;;;;;;5024607;28;20022;-80
2022/03/16 07:16:07;;;;;;;42.47;22.13;;;;;;;;;;5006031;28;20081;-82
2022/03/16 07:18:32;;;;;;;44.80;22.67;;;;;;;;;;4997658;28;20109;-82
2022/03/16 07:20:58;;;;;;;47.90;23.00;;;;;;;;;;4983372;28;20030;-80
2022/03/16 07:23:23;;;;;;;42.40;21.25;;;;;;;;;;4986111;28;20037;-81
2022/03/16 07:25:49;;;;;;;44.75;23.48;;;;;;;;;;4982465;28;20106;-81
2022/03/16 07:28:17;;;;;;;42.65;23.35;;;;;;;;;;4988042;28;20510;-81
2022/03/16 07:30:43;;;;;;;43.80;22.40;;;;;;;;;;4993616;28;20037;-83
2022/03/16 07:33:09;;;;;;;44.42;23.33;;;;;;;;;;4989268;28;20094;-82
2022/03/16 07:35:35;;;;;;;47.97;22.75;;;;;;;;;;4988559;28;20026;-79
2022/03/16 07:38:02;;;;;;;41.08;21.38;;;;;;;;;;4975179;28;20041;-82
2022/03/16 07:40:31;;;;;;;43.13;23.05;;;;;;;;;;4978447;28;20022;-84
2022/03/16 07:42:56;;;;;;;41.45;22.50;;;;;;;;;;4994093;28;20036;-83
2022/03/16 07:45:23;;;;;;;46.42;22.48;;;;;;;;;;4997654;28;20054;-81
2022/03/16 07:47:50;;;;;;;43.13;22.40;;;;;;;;;;4982781;28;20071;-82
2022/03/16 07:50:16;;;;;;;40.75;20.85;;;;;;;;;;5003831;28;20014;-80
2022/03/16 07:52:43;;;;;;;38.03;20.60;;;;;;;;;;4996252;28;20034;-82
2022/03/16 07:55:09;;;;;;;49.10;23.52;;;;;;;;;;5010719;28;20438;-81
2022/03/16 07:57:38;;;;;;;40.17;21.70;;;;;;;;;;4992401;28;20022;-82
2022/03/16 08:00:11;;;;;;;52.75;25.83;;;;;;;;;;5021640;28;20030;-83
2022/03/16 08:02:44;;;;;;;48.83;24.25;;;;;;;;;;5012170;28;20033;-81
2022/03/16 08:05:39;;;;;;;67.43;29.67;;;;;;;;;;5015348;28;20029;-82
2022/03/16 08:08:05;;;;;;;42.92;23.38;;;;;;;;;;4992789;28;20038;-82
2022/03/16 08:10:30;;;;;;;60.35;27.65;;;;;;;;;;4992385;28;20077;-83
2022/03/16 08:12:58;;;;;;;50.42;25.40;;;;;;;;;;4991637;28;20027;-83
2022/03/16 08:15:27;;;;;;;56.25;26.25;;;;;;;;;;4991718;28;20034;-83
2022/03/16 08:17:52;;;;;;;62.85;28.60;;;;;;;;;;4992075;28;20365;-79
2022/03/16 08:20:18;;;;;;;47.92;23.42;;;;;;;;;;4992240;28;20163;-82
2022/03/16 08:22:43;;;;;;;86.53;36.53;;;;;;;;;;5010345;28;20073;-83
2022/03/16 08:25:10;;;;;;;46.70;25.38;;;;;;;;;;4990185;28;20030;-81
2022/03/16 08:27:37;;;;;;;46.35;24.02;;;;;;;;;;5014536;28;20026;-82
2022/03/16 08:30:05;;;;;;;48.67;25.23;;;;;;;;;;5005049;28;20038;-78
2022/03/16 08:32:30;;;;;;;62.05;29.45;;;;;;;;;;4988700;28;20025;-86
2022/03/16 08:34:59;;;;;;;41.35;22.27;;;;;;;;;;5007140;28;20090;-81
2022/03/16 08:37:24;;;;;;;45.70;23.83;;;;;;;;;;4990730;28;20066;-83
2022/03/16 08:39:50;;;;;;;56.70;29.20;;;;;;;;;;4997764;28;20069;-81
2022/03/16 08:42:18;;;;;;;45.80;22.58;;;;;;;;;;5010362;28;20085;-83
2022/03/16 08:44:48;;;;;;;44.85;24.33;;;;;;;;;;4993040;28;20098;-83
2022/03/16 08:47:18;;;;;;;37.15;19.33;;;;;;;;;;4979388;28;20096;-83
2022/03/16 08:49:51;;;;;;;39.47;20.85;;;;;;;;;;5001255;28;20026;-83
2022/03/16 08:52:17;;;;;;;43.00;22.25;;;;;;;;;;4982702;28;20634;-82
2022/03/16 08:54:44;;;;;;;40.50;22.05;;;;;;;;;;4997792;28;20110;-82
2022/03/16 08:57:10;;;;;;;37.35;21.50;;;;;;;;;;5006029;28;20033;-84
2022/03/16 08:59:36;;;;;;;36.38;19.67;;;;;;;;;;4997165;28;20026;-81
2022/03/16 09:02:13;;;;;;;38.28;19.10;;;;;;;;;;4987194;28;20442;-87
2022/03/16 09:11:16;;;;;;;38.63;20.65;;;;;;;;;;4994445;28;20030;-83
2022/03/16 09:13:51;;;;;;;33.10;18.90;;;;;;;;;;5002977;28;20128;-83
2022/03/16 09:19:39;;;;;;;29.38;16.83;;;;;;;;;;5001198;28;20037;-82
2022/03/16 09:22:04;;;;;;;33.83;18.52;;;;;;;;;;4983851;28;20034;-81
2022/03/16 09:24:32;;;;;;;29.73;17.90;;;;;;;;;;4979576;28;20090;-81
2022/03/16 09:27:49;;;;;;;31.90;17.65;;;;;;;;;;4978873;28;20105;-82
2022/03/16 09:30:14;;;;;;;31.77;17.38;;;;;;;;;;5004047;28;20074;-82
2022/03/16 09:33:31;;;;;;;32.10;18.13;;;;;;;;;;4983112;28;20035;-82
2022/03/16 09:38:31;;;;;;;30.98;18.77;;;;;;;;;;5075869;23;20536;-82
2022/03/16 09:40:57;;;;;;;31.88;17.52;;;;;;;;;;5020576;28;20030;-82
2022/03/16 09:43:26;;;;;;;31.30;17.70;;;;;;;;;;4987936;28;20453;-79
2022/03/16 09:45:56;;;;;;;31.83;17.92;;;;;;;;;;5014082;28;20030;-81
2022/03/16 09:48:23;;;;;;;33.38;17.42;;;;;;;;;;5020936;28;20389;-79
2022/03/16 09:51:02;;;;;;;30.27;16.63;;;;;;;;;;4985175;28;20058;-79
2022/03/16 09:53:43;;;;;;;32.20;17.90;;;;;;;;;;5000200;28;20132;-78
2022/03/16 09:56:52;;;;;;;48.92;23.38;;;;;;;;;;5017949;28;20014;-79
2022/03/16 09:59:21;;;;;;;39.00;19.48;;;;;;;;;;5010278;28;20480;-78
2022/03/16 10:05:44;;;;;;;38.22;19.58;;;;;;;;;;4963099;28;20030;-79
2022/03/16 10:08:39;;;;;;;33.30;18.23;;;;;;;;;;5001866;28;20026;-80
2022/03/16 10:14:07;;;;;;;30.52;16.73;;;;;;;;;;5024436;28;20037;-80
2022/03/16 10:17:43;;;;;;;;;;;;;;;;;;5006451;28;20049;-80
2022/03/16 10:19:32;;;;;;;29.98;16.60;;;;;;;;;;5021663;28;19909;-80
2022/03/16 10:22:04;;;;;;;29.05;16.90;;;;;;;;;;5003896;28;20117;-79
2022/03/16 10:24:30;;;;;;;27.85;16.15;;;;;;;;;;4989384;28;20030;-78
2022/03/16 10:26:59;;;;;;;30.80;17.38;;;;;;;;;;5002153;28;20050;-80
2022/03/16 10:29:26;;;;;;;29.95;16.15;;;;;;;;;;4984268;28;20042;-79
2022/03/16 10:32:03;;;;;;;28.05;16.65;;;;;;;;;;4983256;28;20018;-80
2022/03/16 10:34:30;;;;;;;30.08;16.00;;;;;;;;;;4999260;28;20026;-79
2022/03/16 10:37:52;;;;;;;27.90;16.38;;;;;;;;;;4982435;28;20033;-80
2022/03/16 10:40:20;;;;;;;27.13;16.00;;;;;;;;;;4939419;28;20089;-79
2022/03/16 10:48:19;;;;;;;32.33;16.10;;;;;;;;;;5009812;28;20048;-79
2022/03/16 10:50:48;;;;;;;23.02;12.68;;;;;;;;;;5001462;28;20029;-79
2022/03/16 10:53:18;;;;;;;28.15;15.02;;;;;;;;;;5017984;28;20104;-79
2022/03/16 10:55:45;;;;;;;24.20;15.10;;;;;;;;;;5005252;28;20067;-78
2022/03/16 10:58:15;;;;;;;25.05;15.52;;;;;;;;;;5000993;28;20049;-79
2022/03/16 11:00:41;;;;;;;24.40;14.13;;;;;;;;;;4986478;28;20019;-78
2022/03/16 11:03:09;;;;;;;25.90;15.40;;;;;;;;;;4998376;28;20090;-78
2022/03/16 11:05:39;;;;;;;25.63;15.55;;;;;;;;;;5005620;28;20084;-79
2022/03/16 11:08:07;;;;;;;23.80;15.13;;;;;;;;;;4997013;28;20076;-81
2022/03/16 11:10:43;;;;;;;24.48;14.73;;;;;;;;;;4994700;28;20104;-80
2022/03/16 11:13:32;;;;;;;24.48;14.80;;;;;;;;;;4995359;28;20448;-80
2022/03/16 11:16:34;;;;;;;21.60;15.15;;;;;;;;;;5000667;28;20100;-80
2022/03/16 11:19:28;;;;;;;28.30;15.40;;;;;;;;;;5017354;28;20129;-80
2022/03/16 11:22:11;;;;;;;22.70;14.35;;;;;;;;;;5013504;28;20129;-81
2022/03/16 11:24:41;;;;;;;27.10;14.15;;;;;;;;;;4989000;28;20469;-79
2022/03/16 11:27:20;;;;;;;24.15;14.40;;;;;;;;;;4981501;28;20026;-80
2022/03/16 11:29:45;;;;;;;21.98;13.52;;;;;;;;;;4997579;28;20030;-80
2022/03/16 11:32:14;;;;;;;21.63;13.50;;;;;;;;;;4985988;28;20041;-80
2022/03/16 11:34:46;;;;;;;25.75;14.90;;;;;;;;;;4985770;28;20026;-81
2022/03/16 11:37:45;;;;;;;24.90;15.13;;;;;;;;;;4996105;28;20424;-83
2022/03/16 11:40:22;;;;;;;22.58;14.48;;;;;;;;;;5021021;28;20058;-82
2022/03/16 11:43:11;;;;;;;23.85;14.45;;;;;;;;;;4998128;28;20065;-77
2022/03/16 11:45:43;;;;;;;22.80;13.95;;;;;;;;;;4998740;28;20037;-79
2022/03/16 11:48:31;;;;;;;;;;;;;;;;;;4982945;28;20401;-79
2022/03/16 11:51:08;;;;;;;28.02;14.82;;;;;;;;;;4984171;28;19910;-79
2022/03/16 11:53:46;;;;;;;27.10;13.68;;;;;;;;;;4982350;28;20121;-79
2022/03/16 11:56:25;;;;;;;27.10;13.23;;;;;;;;;;4981175;28;20023;-78
2022/03/16 11:58:53;;;;;;;20.95;12.10;;;;;;;;;;4987752;28;20154;-79
2022/03/16 12:01:28;;;;;;;21.45;14.23;;;;;;;;;;5015460;28;20060;-78
2022/03/16 12:04:12;;;;;;;26.65;14.80;;;;;;;;;;5001385;28;20064;-79
2022/03/16 12:06:50;;;;;;;24.42;14.50;;;;;;;;;;5019505;28;20465;-79
2022/03/16 12:09:29;;;;;;;22.42;13.43;;;;;;;;;;5019609;28;20026;-79
2022/03/16 12:15:19;;;;;;;19.67;12.93;;;;;;;;;;5011109;28;20036;-78
2022/03/16 12:17:54;;;;;;;21.80;14.60;;;;;;;;;;4995245;28;20179;-79
2022/03/16 12:20:34;;;;;;;20.77;12.55;;;;;;;;;;4990459;28;20429;-78
2022/03/16 12:23:09;;;;;;;19.70;13.43;;;;;;;;;;5008180;28;20064;-79
2022/03/16 12:25:36;;;;;;;21.48;13.45;;;;;;;;;;5015670;28;20113;-78
2022/03/16 12:31:31;;;;;;;19.60;12.85;;;;;;;;;;5018210;28;20107;-79
2022/03/16 12:33:58;;;;;;;22.85;13.60;;;;;;;;;;4975468;28;20060;-79
2022/03/16 12:36:32;;;;;;;22.63;13.77;;;;;;;;;;4980917;28;20014;-80
2022/03/16 12:39:05;;;;;;;23.30;13.15;;;;;;;;;;4968622;28;20461;-81
2022/03/16 12:44:17;;;;;;;22.40;12.38;;;;;;;;;;4980238;28;20113;-82
2022/03/16 12:46:57;;;;;;;22.20;12.30;;;;;;;;;;4996796;28;20037;-80
2022/03/16 12:49:23;;;;;;;19.98;13.13;;;;;;;;;;4994276;28;20030;-80
2022/03/16 12:51:54;;;;;;;19.38;12.25;;;;;;;;;;4993606;28;20029;-81
2022/03/16 12:54:30;;;;;;;19.60;12.45;;;;;;;;;;4990438;28;20022;-81
2022/03/16 12:57:09;;;;;;;20.48;12.75;;;;;;;;;;4980555;28;20443;-82
2022/03/16 12:59:40;;;;;;;19.48;11.68;;;;;;;;;;5009848;28;20022;-82
2022/03/16 13:02:08;;;;;;;17.35;10.70;;;;;;;;;;4990140;28;20026;-81
2022/03/16 13:04:35;;;;;;;18.23;11.43;;;;;;;;;;5001762;28;20443;-80
2022/03/16 13:07:55;;;;;;;18.70;11.50;;;;;;;;;;4986458;28;20033;-78
2022/03/16 13:11:15;;;;;;;26.58;11.63;;;;;;;;;;4904161;29;20129;-82
2022/03/16 13:16:55;;;;;;;22.17;12.25;;;;;;;;;;5007759;22;20573;-81
2022/03/16 13:19:26;;;;;;;18.20;11.50;;;;;;;;;;5022484;28;20030;-81
2022/03/16 13:22:17;;;;;;;19.73;11.35;;;;;;;;;;5006417;28;20110;-80
2022/03/16 13:24:54;;;;;;;17.80;10.98;;;;;;;;;;5018081;28;20030;-83
2022/03/16 13:27:26;;;;;;;18.27;11.85;;;;;;;;;;5010385;28;20033;-80
2022/03/16 13:29:55;;;;;;;;;;;;;;;;;;4990378;28;20109;-81
2022/03/16 13:32:32;;;;;;;16.10;11.00;;;;;;;;;;5007990;28;19916;-81
2022/03/16 13:35:25;;;;;;;16.33;11.18;;;;;;;;;;5007696;28;20018;-81
2022/03/16 13:38:00;;;;;;;16.70;10.95;;;;;;;;;;4997503;28;20113;-81
2022/03/16 13:40:31;;;;;;;17.45;10.88;;;;;;;;;;5007724;28;20034;-80
2022/03/16 13:43:06;;;;;;;18.02;10.77;;;;;;;;;;5006409;28;20333;-79
2022/03/16 13:45:49;;;;;;;17.50;11.50;;;;;;;;;;5003722;28;20481;-79
2022/03/16 13:48:16;;;;;;;19.42;11.90;;;;;;;;;;5007762;28;20022;-79
2022/03/16 13:51:06;;;;;;;17.08;10.65;;;;;;;;;;5010723;28;20022;-82
2022/03/16 13:53:43;;;;;;;17.02;11.80;;;;;;;;;;5009374;28;20041;-81
2022/03/16 13:56:21;;;;;;;15.02;10.15;;;;;;;;;;5007404;28;20022;-83
2022/03/16 13:58:53;;;;;;;16.40;10.82;;;;;;;;;;5015043;28;20034;-81
2022/03/16 14:01:23;;;;;;;18.40;10.23;;;;;;;;;;4989739;28;20025;-82
2022/03/16 14:04:04;;;;;;;18.75;11.02;;;;;;;;;;5012491;28;20019;-83
2022/03/16 14:06:43;;;;;;;16.83;11.20;;;;;;;;;;5000290;28;20030;-81
2022/03/16 14:09:21;;;;;;;16.20;10.95;;;;;;;;;;5006440;28;20054;-81
2022/03/16 14:11:48;;;;;;;20.05;11.43;;;;;;;;;;4999950;28;20036;-81
2022/03/16 14:14:18;;;;;;;17.05;10.70;;;;;;;;;;5036182;28;20021;-80
2022/03/16 14:16:47;;;;;;;17.42;11.00;;;;;;;;;;5035391;28;20053;-81
2022/03/16 14:19:35;;;;;;;16.48;11.13;;;;;;;;;;5021150;28;20037;-80
2022/03/16 14:22:01;;;;;;;16.48;10.90;;;;;;;;;;5025963;28;20140;-80
2022/03/16 14:24:27;;;;;;;15.60;10.32;;;;;;;;;;5028130;28;20150;-83
2022/03/16 14:26:53;;;;;;;19.63;12.00;;;;;;;;;;5016571;28;20030;-82
2022/03/16 14:29:19;;;;;;;17.33;11.52;;;;;;;;;;5028370;28;20025;-81
2022/03/16 14:31:45;;;;;;;16.40;11.30;;;;;;;;;;5012540;28;20023;-81
2022/03/16 14:34:10;;;;;;;16.45;11.48;;;;;;;;;;5000403;28;20120;-79
2022/03/16 14:36:37;;;;;;;17.40;11.98;;;;;;;;;;5004234;28;20413;-79
2022/03/16 14:39:03;;;;;;;17.55;11.40;;;;;;;;;;5011757;28;20105;-81
2022/03/16 14:41:28;;;;;;;19.38;11.68;;;;;;;;;;5014256;28;20054;-81
2022/03/16 14:43:54;;;;;;;17.35;10.68;;;;;;;;;;5016222;28;20029;-80
2022/03/16 14:46:20;;;;;;;19.10;12.27;;;;;;;;;;5013272;28;20017;-80
2022/03/16 14:48:45;;;;;;;21.40;11.82;;;;;;;;;;5021394;28;20022;-80
2022/03/16 14:51:11;;;;;;;19.58;11.02;;;;;;;;;;5025214;28;20471;-80
2022/03/16 14:53:36;;;;;;;17.13;12.50;;;;;;;;;;5034629;28;20025;-81
2022/03/16 14:56:02;;;;;;;14.43;10.48;;;;;;;;;;5042154;28;20092;-81
2022/03/16 14:58:27;;;;;;;16.80;11.27;;;;;;;;;;5038040;28;20384;-82
2022/03/16 15:00:53;;;;;;;17.63;9.55;;;;;;;;;;5024433;28;20093;-81
2022/03/16 15:03:18;;;;;;;16.08;10.85;;;;;;;;;;5018503;28;20026;-82
2022/03/16 15:05:44;;;;;;;18.25;10.25;;;;;;;;;;5011429;28;20037;-81
2022/03/16 15:08:12;;;;;;;17.33;11.23;;;;;;;;;;5015961;28;20034;-79
2022/03/16 15:10:39;;;;;;;17.38;12.10;;;;;;;;;;5026459;28;20017;-81